Time;durP1;ratioP1;P1;durP2;ratioP2;P2;SDS_P1;SDS_P2;PMS_P1;PMS_P2;Temp;Humidity;BMP_temperature;BMP_pressure;BME280_temperature;BME280_humidity;BME280_pressure;Samples;Min_cycle;Max_cycle;Signal;HPM_P1;HPM_P2
2021/09/05 00:01:35;;;;;;;9.70;4.80;;;12.50;99.90;;;;;;6184324;23;20620;-89
2021/09/05 00:04:22;;;;;;;5.25;4.28;;;12.50;99.90;;;;;;6162549;23;20372;-87
2021/09/05 00:07:08;;;;;;;4.15;3.75;;;12.30;99.90;;;;;;6182974;23;20452;-88
2021/09/05 00:09:54;;;;;;;4.30;3.85;;;12.20;99.90;;;;;;6163926;23;20385;-89
2021/09/05 00:12:41;;;;;;;4.88;4.05;;;12.20;99.90;;;;;;6184515;23;20352;-89
2021/09/05 00:15:27;;;;;;;4.75;4.00;;;12.10;99.90;;;;;;6161627;23;20368;-88
2021/09/05 00:18:13;;;;;;;4.93;4.22;;;12.20;99.90;;;;;;6163611;23;20385;-89
2021/09/05 00:20:59;;;;;;;4.45;3.92;;;12.10;99.90;;;;;;6166407;23;20405;-91
2021/09/05 00:23:45;;;;;;;6.70;4.25;;;12.10;99.90;;;;;;6169321;23;20354;-91
2021/09/05 00:26:32;;;;;;;4.60;3.95;;;12.10;99.90;;;;;;6143592;23;20373;-89
2021/09/05 00:29:18;;;;;;;5.22;4.70;;;12.10;99.90;;;;;;6185805;23;20446;-89
2021/09/05 00:32:05;;;;;;;5.38;4.18;;;12.20;99.90;;;;;;6165689;23;20358;-89
2021/09/05 00:34:51;;;;;;;5.75;4.93;;;12.20;99.90;;;;;;6165516;23;20353;-87
2021/09/05 00:37:39;;;;;;;5.57;4.63;;;12.10;99.90;;;;;;6164853;23;20436;-90
2021/09/05 00:40:25;;;;;;;4.53;3.97;;;12.00;99.90;;;;;;6184525;23;20441;-89
2021/09/05 00:43:11;;;;;;;4.68;4.07;;;12.00;99.90;;;;;;6164999;23;20357;-88
2021/09/05 00:49:09;;;;;;;4.83;4.10;;;12.00;99.90;;;;;;6175873;23;20355;-89
2021/09/05 00:51:55;;;;;;;3.83;3.53;;;12.00;99.90;;;;;;6134941;23;20406;-90
2021/09/05 00:54:42;;;;;;;5.07;4.57;;;12.10;99.90;;;;;;6116735;23;20397;-88
2021/09/05 00:57:29;;;;;;;4.20;3.60;;;12.00;99.90;;;;;;6116105;23;20432;-88
2021/09/05 01:00:19;;;;;;;3.80;3.30;;;12.00;99.90;;;;;;6133426;23;20394;-89
2021/09/05 01:03:05;;;;;;;3.75;3.45;;;12.00;99.90;;;;;;6134599;23;20579;-89
2021/09/05 01:05:54;;;;;;;5.10;4.60;;;12.00;99.90;;;;;;6136997;23;20388;-89
2021/09/05 01:08:44;;;;;;;4.47;3.65;;;12.10;99.90;;;;;;6153710;23;20355;-90
2021/09/05 01:11:33;;;;;;;4.20;3.78;;;11.90;99.90;;;;;;6136657;23;20363;-88
2021/09/05 01:14:21;;;;;;;4.33;3.50;;;11.90;99.90;;;;;;6133222;23;20359;-88
2021/09/05 01:17:10;;;;;;;4.30;3.35;;;11.90;99.90;;;;;;6118975;23;20372;-92
2021/09/05 01:20:19;;;;;;;4.65;3.45;;;12.00;99.90;;;;;;6131899;23;20415;-91
2021/09/05 01:23:37;;;;;;;5.30;4.45;;;11.90;99.90;;;;;;6140281;23;20394;-90
2021/09/05 01:38:32;;;;;;;3.60;3.30;;;11.70;99.90;;;;;;6176279;23;20379;-89
2021/09/05 01:41:39;;;;;;;4.18;3.75;;;11.70;99.90;;;;;;6096239;23;20356;-88
2021/09/05 01:44:31;;;;;;;3.97;2.90;;;11.70;99.90;;;;;;6127128;23;20962;-90
2021/09/05 01:47:55;;;;;;;3.97;3.40;;;11.60;99.90;;;;;;6119677;23;20357;-89
2021/09/05 01:51:04;;;;;;;3.58;3.28;;;11.60;99.90;;;;;;6124525;23;20369;-89
2021/09/05 01:54:12;;;;;;;3.70;3.40;;;11.60;99.90;;;;;;6110193;23;20374;-89
2021/09/05 01:57:27;;;;;;;4.55;3.50;;;11.60;99.90;;;;;;6132144;23;20452;-89
2021/09/05 02:00:32;;;;;;;3.95;3.50;;;11.40;99.90;;;;;;6110567;23;20376;-90
2021/09/05 02:03:32;;;;;;;3.15;2.78;;;11.40;99.90;;;;;;6106786;23;20433;-90
2021/09/05 02:06:27;;;;;;;2.72;2.53;;;11.40;99.90;;;;;;6126415;23;20372;-91
2021/09/05 02:09:29;;;;;;;3.47;3.17;;;11.30;99.90;;;;;;6107592;23;20401;-89
2021/09/05 02:12:35;;;;;;;3.22;2.92;;;11.40;99.90;;;;;;6109639;23;20391;-89
2021/09/05 02:15:57;;;;;;;3.45;2.80;;;11.30;99.90;;;;;;6127901;23;20420;-90
2021/09/05 02:19:07;;;;;;;3.47;3.17;;;11.30;99.90;;;;;;6105710;23;20386;-88
2021/09/05 02:22:12;;;;;;;3.47;3.17;;;11.20;99.90;;;;;;6111545;23;20353;-89
2021/09/05 02:28:50;;;;;;;2.85;2.63;;;11.20;99.90;;;;;;6153982;23;20370;-88
2021/09/05 02:32:10;;;;;;;3.22;2.97;;;11.10;99.90;;;;;;6126746;23;20362;-88
2021/09/05 02:35:20;;;;;;;3.20;3.00;;;11.10;99.90;;;;;;6124374;23;20343;-90
2021/09/05 02:38:17;;;;;;;3.30;2.90;;;11.10;99.90;;;;;;6151531;23;20373;-87
2021/09/05 02:50:20;;;;;;;4.95;4.40;;;11.10;99.90;;;;;;6172971;23;20446;-89
2021/09/05 02:53:29;;;;;;;4.78;4.22;;;11.20;99.90;;;;;;6142665;23;20370;-89
2021/09/05 02:56:38;;;;;;;5.22;4.72;;;11.10;99.90;;;;;;6137748;23;20379;-89
2021/09/05 02:59:47;;;;;;;6.63;5.63;;;11.20;99.90;;;;;;6128839;23;20363;-90
2021/09/05 03:02:54;;;;;;;5.50;4.80;;;11.20;99.90;;;;;;6124457;23;20347;-90
2021/09/05 03:06:02;;;;;;;6.28;4.57;;;11.20;99.90;;;;;;6157857;23;20351;-88
2021/09/05 03:09:14;;;;;;;5.85;5.25;;;11.30;99.90;;;;;;6159041;23;20397;-89
2021/09/05 03:12:23;;;;;;;6.47;5.18;;;11.30;99.90;;;;;;6189695;23;20477;-88
2021/09/05 03:34:37;;;;;;;4.78;4.30;;;11.50;99.90;;;;;;6175957;23;20430;-88
2021/09/05 03:37:41;;;;;;;5.20;4.70;;;11.40;99.90;;;;;;6125973;23;20362;-88
2021/09/05 03:41:11;;;;;;;5.47;4.40;;;11.50;99.90;;;;;;6147158;23;20411;-87
2021/09/05 03:44:16;;;;;;;5.32;4.82;;;11.60;99.90;;;;;;6159968;23;20347;-89
2021/09/05 03:47:26;;;;;;;4.53;4.10;;;11.50;99.90;;;;;;6174430;23;20354;-88
2021/09/05 03:50:28;;;;;;;6.05;4.22;;;11.50;99.90;;;;;;6172380;23;20351;-89
2021/09/05 03:53:16;;;;;;;4.65;4.18;;;11.60;99.90;;;;;;6156294;23;20399;-87
2021/09/05 03:56:04;;;;;;;5.63;5.13;;;11.60;99.90;;;;;;6139269;23;20374;-89
2021/09/05 03:58:53;;;;;;;5.88;5.15;;;11.50;99.90;;;;;;6156661;23;20394;-89
2021/09/05 04:01:41;;;;;;;4.85;4.45;;;11.60;99.90;;;;;;6184372;23;20373;-88
2021/09/05 04:04:42;;;;;;;5.53;4.70;;;11.50;99.90;;;;;;6132793;23;20341;-88
2021/09/05 04:10:52;;;;;;;4.82;4.43;;;11.40;99.90;;;;;;6183329;23;20511;-88
2021/09/05 04:25:51;;;;;;;4.70;4.30;;;11.30;99.90;;;;;;6180297;23;20362;-89
2021/09/05 04:28:38;;;;;;;5.15;4.45;;;11.30;99.90;;;;;;6118075;23;20343;-89
2021/09/05 04:31:24;;;;;;;4.90;4.40;;;11.40;99.90;;;;;;6068575;23;20356;-90
2021/09/05 04:42:59;;;;;;;5.17;4.63;;;11.30;99.90;;;;;;6175298;23;20379;-87
2021/09/05 04:45:45;;;;;;;5.20;4.57;;;11.40;99.90;;;;;;6100338;23;20347;-87
2021/09/05 04:48:31;;;;;;;5.60;4.10;;;11.40;99.90;;;;;;6132346;23;20347;-88
2021/09/05 04:51:18;;;;;;;4.75;4.35;;;11.40;99.90;;;;;;6107400;23;20373;-85
2021/09/05 04:54:15;;;;;;;5.22;4.68;;;11.40;99.90;;;;;;6107927;23;20375;-89
2021/09/05 04:57:02;;;;;;;5.00;4.20;;;11.40;99.90;;;;;;6109613;23;20380;-88
2021/09/05 04:59:48;;;;;;;4.78;4.10;;;11.40;99.90;;;;;;6064235;23;20372;-89
2021/09/05 05:02:34;;;;;;;5.10;4.53;;;11.50;99.90;;;;;;6085694;23;20444;-87
2021/09/05 05:05:20;;;;;;;4.30;3.90;;;11.50;99.90;;;;;;6065671;23;20379;-87
2021/09/05 05:08:13;;;;;;;6.55;4.88;;;11.50;99.90;;;;;;6108139;23;20360;-92
2021/09/05 05:10:59;;;;;;;5.30;4.80;;;11.60;99.90;;;;;;6067822;23;20361;-89
2021/09/05 05:13:45;;;;;;;4.63;4.15;;;11.60;99.90;;;;;;6065316;23;20361;-87
2021/09/05 05:16:31;;;;;;;4.30;3.90;;;11.70;99.90;;;;;;6065560;23;20412;-90
2021/09/05 05:19:17;;;;;;;6.47;4.97;;;11.70;99.90;;;;;;6066575;23;20373;-89
2021/09/05 05:22:12;;;;;;;4.82;4.20;;;11.70;99.90;;;;;;6066223;23;20356;-91
2021/09/05 05:24:59;;;;;;;4.10;3.78;;;11.80;99.90;;;;;;6102777;23;20447;-89
2021/09/05 05:27:46;;;;;;;7.10;4.35;;;11.90;99.90;;;;;;6066066;23;20341;-89
2021/09/05 05:45:47;;;;;;;5.50;4.18;;;12.30;99.90;;;;;;6175313;23;20347;-90
2021/09/05 05:48:33;;;;;;;4.07;3.50;;;12.40;99.90;;;;;;6112745;23;20454;-89
2021/09/05 05:51:19;;;;;;;4.43;3.72;;;12.60;99.90;;;;;;6104989;23;20363;-89
2021/09/05 05:54:05;;;;;;;4.27;3.87;;;12.60;99.90;;;;;;6128989;22;20359;-89
2021/09/05 05:56:51;;;;;;;4.50;4.10;;;12.80;99.90;;;;;;6124995;23;20387;-89
2021/09/05 05:59:37;;;;;;;5.43;4.07;;;12.90;99.90;;;;;;6144403;23;20356;-88
2021/09/05 06:02:23;;;;;;;3.42;3.13;;;13.00;99.90;;;;;;6126975;23;20356;-90
2021/09/05 06:05:10;;;;;;;3.47;3.17;;;13.00;99.90;;;;;;6126542;23;20429;-89
2021/09/05 06:07:56;;;;;;;3.63;3.33;;;13.10;99.90;;;;;;6144419;23;20367;-89
2021/09/05 06:10:42;;;;;;;3.80;3.50;;;13.20;99.90;;;;;;6126489;23;20404;-90
2021/09/05 06:13:28;;;;;;;3.60;3.30;;;13.30;99.90;;;;;;6145417;23;20365;-91
2021/09/05 06:16:15;;;;;;;3.58;3.28;;;13.30;99.90;;;;;;6125340;23;20396;-90
2021/09/05 06:19:02;;;;;;;3.50;3.20;;;13.50;99.90;;;;;;6107586;23;20886;-91
2021/09/05 06:21:49;;;;;;;3.72;3.40;;;13.50;99.90;;;;;;6149936;22;20365;-90
2021/09/05 06:24:35;;;;;;;4.45;3.88;;;13.60;99.90;;;;;;6125800;23;20404;-90
2021/09/05 06:27:21;;;;;;;4.82;3.70;;;13.60;99.90;;;;;;6114445;23;20372;-91
2021/09/05 06:30:12;;;;;;;3.45;3.15;;;13.60;99.90;;;;;;6124228;23;20422;-88
2021/09/05 06:33:17;;;;;;;4.70;3.80;;;13.40;99.90;;;;;;6129164;23;20380;-89
2021/09/05 06:36:05;;;;;;;4.15;3.33;;;13.30;99.90;;;;;;6144370;23;20384;-88
2021/09/05 06:38:51;;;;;;;5.00;3.13;;;13.40;99.90;;;;;;6127628;23;20373;-88
2021/09/05 06:41:37;;;;;;;4.35;3.30;;;13.50;99.90;;;;;;6124537;23;20365;-89
2021/09/05 06:44:24;;;;;;;3.50;3.20;;;13.60;99.90;;;;;;6148287;23;20372;-90
2021/09/05 06:47:10;;;;;;;4.07;3.50;;;13.60;99.90;;;;;;6126292;23;20444;-86
2021/09/05 07:10:44;;;;;;;3.50;3.20;;;14.30;99.90;;;;;;6174146;23;20367;-91
2021/09/05 07:13:30;;;;;;;4.05;3.50;;;14.40;99.90;;;;;;6115994;23;20362;-88
2021/09/05 07:54:24;;;;;;;3.53;3.17;;;16.00;99.90;;;;;;6166058;23;20391;-90
2021/09/05 07:57:10;;;;;;;5.88;4.43;;;16.30;99.90;;;;;;6091011;23;20383;-91
2021/09/05 07:59:56;;;;;;;4.45;4.03;;;16.40;99.90;;;;;;6082805;23;20405;-90
2021/09/05 08:02:42;;;;;;;5.22;4.50;;;16.50;99.90;;;;;;6082068;23;20448;-92
2021/09/05 08:05:28;;;;;;;5.68;4.38;;;16.50;99.90;;;;;;6100166;23;20353;-91
2021/09/05 08:08:16;;;;;;;6.88;5.43;;;16.70;99.90;;;;;;6083615;23;20361;-91
2021/09/05 08:11:05;;;;;;;6.13;5.22;;;16.60;99.90;;;;;;6083073;23;20687;-90
2021/09/05 08:13:52;;;;;;;5.65;4.45;;;16.70;99.90;;;;;;6101605;23;20370;-93
2021/09/05 08:16:38;;;;;;;5.38;4.40;;;16.70;99.90;;;;;;6081962;23;20395;-91
2021/09/05 08:19:24;;;;;;;5.75;4.95;;;17.10;99.90;;;;;;6084414;23;20341;-92
2021/09/05 08:22:10;;;;;;;5.25;4.53;;;17.00;99.90;;;;;;6082835;23;20372;-92
2021/09/05 08:24:56;;;;;;;4.93;4.37;;;17.10;99.90;;;;;;6084657;23;20371;-91
2021/09/05 08:27:42;;;;;;;6.57;4.95;;;17.10;99.90;;;;;;6084154;23;20365;-92
2021/09/05 08:30:28;;;;;;;6.32;4.78;;;17.30;99.90;;;;;;6084461;23;20417;-91
2021/09/05 08:33:15;;;;;;;4.45;4.00;;;17.40;99.90;;;;;;6102509;23;20377;-91
2021/09/05 08:36:03;;;;;;;6.77;4.30;;;17.40;99.90;;;;;;6103278;23;20375;-92
2021/09/05 08:38:49;;;;;;;6.15;4.88;;;17.50;99.90;;;;;;6084462;23;20413;-92
2021/09/05 08:41:35;;;;;;;4.20;3.73;;;17.70;99.90;;;;;;6085745;23;20368;-91
2021/09/05 08:44:21;;;;;;;5.00;4.30;;;17.70;99.90;;;;;;6104599;23;20353;-92
2021/09/05 08:47:08;;;;;;;4.85;4.30;;;17.80;99.90;;;;;;6105482;23;20363;-91
2021/09/05 08:49:54;;;;;;;4.07;3.70;;;17.80;99.90;;;;;;6085055;23;20357;-92
2021/09/05 08:52:40;;;;;;;3.78;3.42;;;18.00;99.90;;;;;;6144148;23;20367;-94
2021/09/05 08:55:26;;;;;;;5.03;3.42;;;18.20;99.90;;;;;;6083792;23;20497;-92
2021/09/05 08:58:12;;;;;;;3.90;3.60;;;18.40;99.90;;;;;;6102102;23;20368;-92
2021/09/05 09:01:08;;;;;;;4.63;3.60;;;18.50;99.90;;;;;;6104372;23;20401;-91
2021/09/05 09:04:07;;;;;;;3.40;3.10;;;18.60;99.90;;;;;;6104162;23;20364;-91
2021/09/05 09:06:53;;;;;;;5.97;3.90;;;18.50;99.90;;;;;;6121675;23;20383;-92
2021/09/05 09:09:49;;;;;;;4.00;3.38;;;18.60;99.90;;;;;;6084829;23;20375;-93
2021/09/05 09:13:01;;;;;;;3.80;3.20;;;18.70;99.90;;;;;;6143703;23;20399;-93
2021/09/05 09:15:47;;;;;;;4.60;4.10;;;18.90;99.90;;;;;;6121851;23;20371;-92
2021/09/05 09:18:34;;;;;;;3.80;3.50;;;18.90;99.90;;;;;;6080189;23;20389;-87
2021/09/05 09:21:20;;;;;;;3.60;3.30;;;19.00;99.90;;;;;;6085074;23;20742;-83
2021/09/05 09:24:18;;;;;;;4.15;3.75;;;19.20;99.90;;;;;;6102400;23;20367;-84
2021/09/05 09:27:05;;;;;;;4.05;3.58;;;19.40;99.90;;;;;;6088261;23;20372;-88
2021/09/05 09:29:56;;;;;;;4.07;3.67;;;19.50;99.90;;;;;;6058520;23;20420;-86
2021/09/05 09:32:49;;;;;;;9.30;3.60;;;19.70;99.90;;;;;;6070244;23;20372;-87
2021/09/05 09:35:55;;;;;;;3.40;3.10;;;19.80;99.90;;;;;;6090361;23;20456;-87
2021/09/05 09:38:59;;;;;;;3.40;3.10;;;20.10;99.90;;;;;;6089285;23;20369;-89
2021/09/05 09:41:45;;;;;;;4.72;3.30;;;20.20;99.90;;;;;;6129403;23;20372;-84
2021/09/05 09:44:31;;;;;;;4.38;3.80;;;20.40;99.90;;;;;;6071168;23;20364;-84
2021/09/05 09:47:17;;;;;;;4.43;3.70;;;20.50;99.90;;;;;;6109961;23;20381;-88
2021/09/05 09:50:03;;;;;;;4.95;4.05;;;20.80;99.90;;;;;;6108597;23;21270;-85
2021/09/05 09:52:49;;;;;;;4.68;3.47;;;20.90;99.90;;;;;;6077723;23;20715;-83
2021/09/05 09:55:39;;;;;;;4.55;3.80;;;21.20;99.90;;;;;;6116319;23;20396;-82
2021/09/05 09:58:25;;;;;;;5.75;3.97;;;21.40;99.90;;;;;;6096507;23;20451;-82
2021/09/05 10:01:15;;;;;;;5.32;4.10;;;21.70;99.90;;;;;;6077116;23;20376;-82
2021/09/05 10:04:01;;;;;;;4.22;3.83;;;21.90;99.90;;;;;;6096576;23;20410;-82
2021/09/05 10:06:47;;;;;;;4.78;4.05;;;22.20;99.90;;;;;;6095308;23;20392;-82
2021/09/05 10:09:33;;;;;;;4.07;3.67;;;22.30;99.90;;;;;;6096389;23;20882;-83
2021/09/05 10:12:19;;;;;;;4.82;4.32;;;22.60;99.90;;;;;;6080316;23;20464;-86
2021/09/05 10:15:07;;;;;;;4.72;3.70;;;22.80;99.90;;;;;;6067165;23;20376;-87
2021/09/05 10:17:53;;;;;;;4.85;3.58;;;22.90;99.90;;;;;;6088445;23;20889;-87
2021/09/05 10:20:39;;;;;;;4.20;3.75;;;23.10;99.90;;;;;;6072302;23;20378;-86
2021/09/05 10:23:28;;;;;;;5.10;4.20;;;23.30;99.90;;;;;;6088081;23;20372;-90
2021/09/05 10:26:15;;;;;;;4.27;3.50;;;23.50;99.90;;;;;;6091475;23;20397;-83
2021/09/05 10:29:01;;;;;;;5.22;3.40;;;23.90;99.90;;;;;;6106760;23;20357;-85
2021/09/05 10:31:47;;;;;;;4.20;3.67;;;24.10;99.90;;;;;;6061825;23;20368;-82
2021/09/05 10:34:37;;;;;;;3.67;3.38;;;24.20;99.90;;;;;;6076162;23;20400;-81
2021/09/05 10:37:25;;;;;;;4.63;4.13;;;24.50;99.90;;;;;;6097792;23;20385;-83
2021/09/05 10:40:12;;;;;;;6.65;3.92;;;24.80;99.90;;;;;;6075203;23;20369;-84
2021/09/05 10:42:59;;;;;;;4.13;3.70;;;25.10;99.90;;;;;;6075421;23;20757;-85
2021/09/05 10:45:49;;;;;;;4.07;3.53;;;25.10;99.90;;;;;;6079596;23;20369;-86
2021/09/05 10:48:36;;;;;;;4.70;3.88;;;25.40;99.90;;;;;;6105607;23;20424;-92
2021/09/05 10:51:23;;;;;;;7.33;3.80;;;25.40;99.90;;;;;;6109194;23;20395;-91
2021/09/05 10:54:19;;;;;;;4.30;3.90;;;25.80;99.90;;;;;;6111060;23;20949;-90
2021/09/05 10:57:05;;;;;;;5.10;3.93;;;26.20;99.90;;;;;;6112115;23;20416;-86
2021/09/05 11:00:05;;;;;;;4.40;4.00;;;26.40;99.90;;;;;;6133809;23;20361;-90
2021/09/05 11:03:10;;;;;;;4.22;3.60;;;26.70;99.90;;;;;;6078189;23;20365;-81
2021/09/05 11:06:37;;;;;;;3.72;3.42;;;26.70;99.90;;;;;;6075839;23;20387;-80
2021/09/05 11:09:24;;;;;;;4.65;3.63;;;26.70;99.90;;;;;;6098559;23;20368;-82
2021/09/05 11:12:23;;;;;;;4.88;3.75;;;26.90;99.90;;;;;;6104031;23;20364;-82
2021/09/05 11:15:13;;;;;;;4.25;3.83;;;27.20;99.90;;;;;;6112324;23;20565;-91
2021/09/05 11:18:00;;;;;;;3.50;3.20;;;27.10;99.90;;;;;;6060437;23;20376;-83
2021/09/05 11:20:47;;;;;;;3.78;3.38;;;27.00;99.90;;;;;;6083028;23;20365;-85
2021/09/05 11:23:36;;;;;;;4.10;3.35;;;27.10;99.90;;;;;;6068139;23;20348;-89
2021/09/05 11:26:27;;;;;;;3.63;3.33;;;27.40;99.90;;;;;;6065387;23;20460;-81
2021/09/05 11:29:25;;;;;;;5.97;3.72;;;27.60;99.90;;;;;;6133561;23;20357;-87
2021/09/05 11:32:19;;;;;;;3.40;3.10;;;28.00;99.90;;;;;;6097879;23;20377;-92
2021/09/05 11:35:15;;;;;;;3.22;2.92;;;28.10;99.90;;;;;;6127440;23;20373;-81
2021/09/05 11:38:06;;;;;;;3.53;3.17;;;28.10;99.90;;;;;;6092570;23;20413;-81
2021/09/05 11:40:53;;;;;;;3.50;3.20;;;28.00;99.90;;;;;;6098310;23;20360;-88
2021/09/05 11:43:43;;;;;;;4.70;4.25;;;27.90;99.90;;;;;;6091786;23;20714;-80
2021/09/05 11:46:34;;;;;;;6.97;4.40;;;27.90;99.90;;;;;;6043487;23;20376;-82
2021/09/05 11:49:26;;;;;;;4.05;3.42;;;28.20;99.40;;;;;;6053160;23;20851;-81
2021/09/05 11:52:26;;;;;;;3.70;3.30;;;28.50;99.90;;;;;;6053699;23;20391;-81
2021/09/05 11:55:22;;;;;;;3.97;3.50;;;29.10;98.20;;;;;;6035182;23;20424;-81
2021/09/05 11:58:23;;;;;;;3.05;2.83;;;29.20;97.00;;;;;;6033717;23;20393;-80
2021/09/05 12:01:57;;;;;;;3.85;3.30;;;29.60;96.50;;;;;;5991029;23;20465;-82
2021/09/05 12:24:07;;;;;;;4.43;2.67;;;29.70;93.10;;;;;;6118142;23;20464;-80
2021/09/05 12:28:41;;;;;;;3.27;2.80;;;29.90;91.70;;;;;;6070090;23;20383;-81
2021/09/05 12:31:51;;;;;;;2.45;2.25;;;30.00;91.60;;;;;;6168817;23;20509;-81
2021/09/05 12:35:29;;;;;;;2.85;2.50;;;30.60;91.80;;;;;;6079868;23;20383;-81
2021/09/05 12:39:28;;;;;;;2.80;2.60;;;30.70;89.80;;;;;;6138159;23;20386;-81
2021/09/05 12:42:55;;;;;;;2.40;2.20;;;30.70;87.40;;;;;;6118503;23;20375;-81
2021/09/05 12:46:33;;;;;;;2.60;2.40;;;31.10;88.70;;;;;;6103459;23;20411;-81
2021/09/05 12:50:21;;;;;;;2.97;2.78;;;31.10;82.40;;;;;;6124594;23;20377;-81
2021/09/05 13:02:53;;;;;;;2.38;2.17;;;31.60;80.20;;;;;;6139884;23;20384;-79
2021/09/05 13:06:15;;;;;;;2.58;2.35;;;32.00;78.90;;;;;;6106312;23;20446;-80
2021/09/05 13:09:22;;;;;;;2.50;2.30;;;32.30;76.10;;;;;;6077732;23;20385;-78
2021/09/05 13:12:22;;;;;;;3.10;2.63;;;32.60;74.30;;;;;;6093003;23;20369;-79
2021/09/05 13:15:23;;;;;;;4.85;2.50;;;32.60;76.40;;;;;;6120282;23;20412;-80
2021/09/05 13:18:52;;;;;;;4.57;2.80;;;32.80;73.50;;;;;;6036199;23;20419;-80
2021/09/05 13:25:18;;;;;;;2.42;2.22;;;32.20;72.70;;;;;;6107086;23;20376;-79
2021/09/05 13:28:06;;;;;;;2.65;2.45;;;32.20;71.50;;;;;;6133666;23;20361;-79
2021/09/05 13:31:00;;;;;;;2.53;2.30;;;32.30;69.80;;;;;;6095592;23;20428;-80
2021/09/05 13:33:54;;;;;;;2.20;2.10;;;32.50;69.70;;;;;;6117717;23;20375;-79
2021/09/05 13:36:40;;;;;;;2.60;2.40;;;32.10;67.00;;;;;;6094583;23;20361;-78
2021/09/05 13:39:27;;;;;;;2.55;2.22;;;32.00;69.60;;;;;;6075770;23;20876;-78
2021/09/05 13:42:14;;;;;;;3.00;2.30;;;32.30;68.30;;;;;;6094374;23;20369;-80
2021/09/05 13:45:02;;;;;;;2.72;2.38;;;32.60;71.10;;;;;;6117303;23;20461;-78
2021/09/05 13:47:51;;;;;;;2.45;2.25;;;32.60;65.10;;;;;;6096494;23;20364;-79
2021/09/05 13:50:39;;;;;;;3.03;2.13;;;32.50;68.60;;;;;;6083140;23;20376;-79
2021/09/05 14:02:04;;;;;;;2.30;1.95;;;32.30;66.80;;;;;;6153250;23;20379;-78
2021/09/05 14:04:51;;;;;;;3.10;2.50;;;32.30;63.40;;;;;;6106448;23;20375;-78
2021/09/05 14:07:39;;;;;;;3.53;2.30;;;32.00;61.20;;;;;;6141731;23;20375;-78
2021/09/05 14:10:28;;;;;;;7.07;2.13;;;32.20;62.00;;;;;;6063915;23;20367;-79
2021/09/05 14:13:17;;;;;;;2.33;2.13;;;32.50;63.00;;;;;;6105366;23;20371;-78
2021/09/05 14:16:04;;;;;;;2.35;2.15;;;32.90;60.40;;;;;;6122628;23;20379;-80
2021/09/05 14:18:53;;;;;;;2.33;2.13;;;32.40;60.70;;;;;;6085146;23;20398;-79
2021/09/05 14:21:41;;;;;;;2.47;2.28;;;32.50;61.10;;;;;;6104953;23;20466;-80
2021/09/05 14:24:29;;;;;;;2.30;2.10;;;32.60;60.50;;;;;;6121314;23;20371;-79
2021/09/05 14:27:19;;;;;;;2.17;1.98;;;32.90;61.00;;;;;;6105281;23;20385;-80
2021/09/05 15:15:28;;;;;;;2.08;1.98;;;27.20;66.70;;;;;;6196455;23;20473;-91
2021/09/05 15:18:14;;;;;;;3.28;2.50;;;26.80;66.30;;;;;;6153608;23;20449;-89
2021/09/05 15:21:05;;;;;;;2.30;2.10;;;26.40;66.60;;;;;;6173710;23;20365;-86
2021/09/05 15:23:56;;;;;;;2.00;1.90;;;26.20;67.40;;;;;;6152969;23;20366;-89
2021/09/05 15:26:45;;;;;;;2.20;2.10;;;26.10;68.10;;;;;;6153670;23;20369;-91
2021/09/05 15:29:38;;;;;;;2.65;2.05;;;26.10;67.90;;;;;;6155676;23;20365;-91
2021/09/05 15:50:54;;;;;;;1.95;1.80;;;25.30;69.60;;;;;;6170598;23;20365;-90
2021/09/05 15:53:45;;;;;;;1.75;1.65;;;25.20;70.30;;;;;;6173151;23;20365;-90
2021/09/05 15:56:33;;;;;;;3.70;2.38;;;25.00;71.10;;;;;;6169730;23;20368;-86
2021/09/05 16:02:16;;;;;;;1.80;1.70;;;24.50;71.00;;;;;;6192445;23;20357;-91
2021/09/05 16:17:07;;;;;;;2.00;1.90;;;23.60;73.20;;;;;;6190738;23;20372;-90
2021/09/05 16:19:55;;;;;;;2.00;1.83;;;23.40;74.20;;;;;;6174510;23;20435;-86
2021/09/05 16:22:41;;;;;;;2.97;2.77;;;23.30;74.60;;;;;;6153572;23;20436;-92
2021/09/05 16:25:28;;;;;;;1.80;1.70;;;23.20;75.80;;;;;;6139057;23;20392;-92
2021/09/05 16:28:16;;;;;;;1.60;1.50;;;23.10;76.20;;;;;;6177546;23;20715;-92
2021/09/05 16:31:08;;;;;;;2.30;2.10;;;23.00;76.40;;;;;;6175265;23;20435;-91
2021/09/05 16:33:59;;;;;;;1.92;1.83;;;23.00;75.60;;;;;;6146157;23;20404;-92
2021/09/05 16:40:27;;;;;;;2.28;1.73;;;22.70;77.40;;;;;;6129737;23;20742;-91
2021/09/05 16:43:14;;;;;;;1.70;1.60;;;22.60;77.90;;;;;;6159581;23;20353;-91
2021/09/05 16:46:01;;;;;;;2.00;1.90;;;22.50;78.20;;;;;;6181451;23;20412;-89
2021/09/05 16:48:47;;;;;;;1.33;1.30;;;22.30;78.90;;;;;;6180889;23;20376;-91
2021/09/05 16:51:33;;;;;;;2.30;1.60;;;22.20;79.60;;;;;;6154949;23;20361;-92
2021/09/05 16:54:19;;;;;;;1.50;1.40;;;22.10;80.40;;;;;;6170514;23;20357;-92
2021/09/05 16:57:06;;;;;;;1.60;1.50;;;22.00;80.70;;;;;;6174529;23;20409;-87
2021/09/05 16:59:52;;;;;;;1.65;1.55;;;21.90;81.40;;;;;;6152625;23;20373;-88
2021/09/05 17:02:40;;;;;;;1.83;1.67;;;21.80;81.70;;;;;;6155325;23;20364;-91
2021/09/05 17:05:26;;;;;;;4.80;1.65;;;21.60;81.90;;;;;;6175623;23;20365;-87
2021/09/05 17:08:13;;;;;;;1.77;1.67;;;21.50;82.70;;;;;;6158945;23;21038;-89
2021/09/05 17:11:00;;;;;;;1.30;1.20;;;21.40;82.90;;;;;;6155799;23;20371;-91
2021/09/05 17:13:48;;;;;;;1.30;1.20;;;21.30;83.10;;;;;;6160436;23;21206;-90
2021/09/05 17:16:35;;;;;;;1.50;1.30;;;21.30;83.60;;;;;;6160410;23;20357;-90
2021/09/05 17:19:21;;;;;;;1.17;1.15;;;21.20;83.60;;;;;;6176048;23;20362;-91
2021/09/05 17:22:07;;;;;;;1.40;1.30;;;21.20;84.20;;;;;;6156271;23;21002;-90
2021/09/05 17:24:53;;;;;;;1.10;1.10;;;21.10;85.50;;;;;;6159001;23;20397;-92
2021/09/05 17:27:39;;;;;;;1.27;1.17;;;20.90;85.20;;;;;;6156468;23;20413;-89
2021/09/05 17:30:27;;;;;;;1.40;1.30;;;21.10;85.60;;;;;;6179066;23;20357;-90
2021/09/05 17:33:14;;;;;;;1.20;1.20;;;20.80;86.40;;;;;;6184228;23;20380;-91
2021/09/05 17:36:01;;;;;;;1.20;1.10;;;20.70;86.70;;;;;;6164384;23;20369;-91
2021/09/05 17:38:50;;;;;;;3.58;2.10;;;20.60;87.10;;;;;;6148582;23;20397;-89
2021/09/05 17:41:36;;;;;;;1.52;1.42;;;20.50;87.00;;;;;;6142469;23;20361;-92
2021/09/05 17:44:24;;;;;;;3.03;1.63;;;20.40;87.50;;;;;;6164651;23;20369;-91
2021/09/05 17:47:10;;;;;;;1.70;1.60;;;20.20;88.10;;;;;;6139694;23;20384;-91
2021/09/05 17:49:56;;;;;;;1.73;1.63;;;20.20;88.40;;;;;;6162165;23;20464;-91
2021/09/05 17:52:43;;;;;;;1.38;1.20;;;20.00;88.80;;;;;;6161673;23;20417;-91
2021/09/05 17:55:29;;;;;;;1.20;1.20;;;19.80;88.80;;;;;;6161062;23;20368;-92
2021/09/05 17:58:16;;;;;;;1.42;1.33;;;19.80;90.20;;;;;;6129153;23;20397;-91
2021/09/05 18:01:02;;;;;;;1.70;1.60;;;19.70;89.60;;;;;;6162705;23;20366;-90
2021/09/05 18:03:48;;;;;;;1.20;1.10;;;19.60;89.90;;;;;;6140579;23;20354;-92
2021/09/05 18:12:39;;;;;;;1.27;1.27;;;19.20;90.70;;;;;;6145686;23;20365;-90
2021/09/05 18:15:27;;;;;;;1.08;1.08;;;19.20;90.80;;;;;;6063291;23;20421;-87
2021/09/05 18:18:15;;;;;;;1.80;1.30;;;19.00;90.90;;;;;;6058227;23;20361;-91
2021/09/05 18:21:01;;;;;;;1.90;1.80;;;19.00;91.80;;;;;;6080830;23;20396;-89
2021/09/05 18:23:49;;;;;;;1.20;1.20;;;18.90;91.90;;;;;;6085003;23;20371;-91
2021/09/05 18:26:36;;;;;;;1.30;1.20;;;18.80;91.90;;;;;;6080506;23;20371;-90
2021/09/05 18:29:23;;;;;;;1.20;1.10;;;18.70;92.00;;;;;;6100173;23;20639;-90
2021/09/05 18:32:11;;;;;;;1.30;1.25;;;18.70;92.10;;;;;;6100346;23;20388;-91
2021/09/05 18:34:57;;;;;;;1.30;1.30;;;18.70;92.80;;;;;;6077474;23;20357;-92
2021/09/05 18:37:44;;;;;;;1.90;1.60;;;18.60;92.60;;;;;;6081083;23;20373;-89
2021/09/05 18:40:32;;;;;;;1.10;1.10;;;18.50;92.60;;;;;;6080740;23;20396;-88
2021/09/05 18:43:19;;;;;;;1.52;1.42;;;18.40;92.90;;;;;;6082755;23;20642;-90
2021/09/05 18:46:05;;;;;;;1.42;1.33;;;18.40;93.10;;;;;;6100064;23;20388;-90
2021/09/05 18:48:57;;;;;;;1.63;1.52;;;18.40;93.40;;;;;;6084330;23;20368;-89
2021/09/05 18:51:43;;;;;;;1.15;1.10;;;18.30;93.90;;;;;;6079159;23;20361;-91
2021/09/05 18:54:29;;;;;;;1.40;1.30;;;18.20;94.30;;;;;;6100066;23;20364;-90
2021/09/05 18:57:16;;;;;;;1.58;1.30;;;18.30;94.40;;;;;;6081821;23;20372;-91
2021/09/05 19:00:06;;;;;;;1.07;1.03;;;18.10;94.50;;;;;;6078863;23;20380;-92
2021/09/05 19:02:52;;;;;;;1.13;1.10;;;18.10;95.20;;;;;;6141045;23;20372;-88
2021/09/05 19:05:38;;;;;;;1.23;1.13;;;18.00;95.40;;;;;;6076107;23;20346;-90
2021/09/05 19:08:29;;;;;;;1.10;1.10;;;18.00;96.00;;;;;;6080816;23;20435;-91
2021/09/05 19:11:15;;;;;;;1.23;1.15;;;18.00;96.50;;;;;;6080315;23;20377;-91
2021/09/05 19:14:02;;;;;;;1.13;1.10;;;17.90;97.00;;;;;;6079990;23;20971;-90
2021/09/05 19:16:49;;;;;;;0.80;0.80;;;17.90;98.00;;;;;;6098454;23;20392;-91
2021/09/05 19:19:38;;;;;;;1.50;1.40;;;17.80;99.10;;;;;;6098498;23;20365;-90
2021/09/05 19:22:25;;;;;;;1.08;1.08;;;17.70;98.60;;;;;;6081086;23;20416;-90
2021/09/05 19:25:11;;;;;;;3.20;1.27;;;17.60;99.90;;;;;;6081956;23;20365;-91
2021/09/05 19:27:59;;;;;;;1.27;1.17;;;17.50;99.90;;;;;;6084482;23;20400;-90
2021/09/05 19:30:49;;;;;;;1.10;1.10;;;17.40;99.90;;;;;;6102460;23;20353;-92
2021/09/05 19:33:35;;;;;;;1.10;1.10;;;17.20;99.90;;;;;;6081538;23;20388;-90